createdAt,value
2023-12-13T00:00:16.879Z,77.50
2023-12-13T00:01:43.574Z,70.00
2023-12-13T00:02:49.954Z,67.70
2023-12-13T00:03:56.675Z,65.40
2023-12-13T00:05:03.867Z,65.90
2023-12-13T00:06:10.239Z,69.30
2023-12-13T00:07:16.677Z,69.70
2023-12-13T00:08:23.149Z,75.10
2023-12-13T00:09:29.618Z,82.30
2023-12-13T00:10:36.235Z,80.10
2023-12-13T00:11:42.549Z,79.90
2023-12-13T00:12:49.115Z,80.60
2023-12-13T00:13:55.787Z,72.70
2023-12-13T00:15:02.108Z,70.40
2023-12-13T00:16:10.231Z,62.50
2023-12-13T00:17:16.568Z,68.40
2023-12-13T00:18:23.295Z,67.50
2023-12-13T00:19:29.523Z,66.70
2023-12-13T00:20:38.743Z,66.50
2023-12-13T00:21:45.420Z,69.50
2023-12-13T00:22:52.268Z,66.30
2023-12-13T00:23:58.696Z,63.50
2023-12-13T00:25:05.849Z,64.10
2023-12-13T00:26:17.281Z,67.00
2023-12-13T00:27:24.069Z,64.90
2023-12-13T00:28:30.981Z,70.80
2023-12-13T00:29:38.154Z,66.60
2023-12-13T00:30:46.472Z,59.50
2023-12-13T00:31:53.064Z,56.00
2023-12-13T00:32:59.397Z,57.30
2023-12-13T00:34:06.686Z,55.30
2023-12-13T00:35:13.336Z,61.10
2023-12-13T00:36:19.601Z,58.20
2023-12-13T00:37:25.993Z,60.80
2023-12-13T00:38:32.284Z,57.70
2023-12-13T00:39:38.756Z,59.30
2023-12-13T00:40:46.569Z,63.00
2023-12-13T00:41:53.255Z,67.20
2023-12-13T00:42:59.606Z,58.70
2023-12-13T00:44:06.146Z,65.20
2023-12-13T00:45:13.412Z,62.30
2023-12-13T00:46:24.034Z,58.20
2023-12-13T00:47:30.823Z,55.10
2023-12-13T00:48:37.618Z,55.40
2023-12-13T00:49:44.069Z,56.00
2023-12-13T00:50:50.752Z,53.80
2023-12-13T00:51:57.242Z,58.50
2023-12-13T00:53:03.796Z,59.10
2023-12-13T00:54:09.972Z,59.20
2023-12-13T00:55:16.344Z,61.70
2023-12-13T00:56:22.600Z,66.70
2023-12-13T00:57:28.901Z,67.50
2023-12-13T00:58:35.192Z,65.20
2023-12-13T00:59:41.426Z,68.90
2023-12-13T01:00:47.948Z,65.80
2023-12-13T01:01:54.531Z,68.80
2023-12-13T01:03:01.097Z,78.50
2023-12-13T01:04:07.997Z,68.50
2023-12-13T01:05:14.539Z,64.90
2023-12-13T01:06:20.888Z,68.30
2023-12-13T01:07:27.275Z,60.80
2023-12-13T01:08:33.628Z,67.40
2023-12-13T01:09:42.513Z,65.70
2023-12-13T01:10:49.029Z,64.80
2023-12-13T01:11:55.378Z,64.10
2023-12-13T01:13:02.398Z,65.70
2023-12-13T01:14:08.982Z,64.90
2023-12-13T01:15:15.989Z,66.40
2023-12-13T01:16:22.256Z,63.70
2023-12-13T01:17:28.478Z,66.60
2023-12-13T01:18:34.899Z,63.50
2023-12-13T01:19:41.332Z,64.40
2023-12-13T01:20:48.040Z,67.70
2023-12-13T01:21:54.851Z,65.30
2023-12-13T01:23:01.365Z,63.10
2023-12-13T01:24:08.196Z,64.40
2023-12-13T01:25:14.867Z,58.70
2023-12-13T01:26:21.091Z,61.90
2023-12-13T01:27:27.396Z,60.60
2023-12-13T01:28:34.061Z,64.20
2023-12-13T01:29:40.356Z,59.00
2023-12-13T01:30:46.797Z,60.80
2023-12-13T01:31:53.448Z,55.60
2023-12-13T01:33:04.060Z,61.10
2023-12-13T01:34:11.108Z,55.50
2023-12-13T01:35:17.533Z,54.70
2023-12-13T01:36:24.253Z,49.00
2023-12-13T01:37:31.433Z,45.20
2023-12-13T01:38:38.139Z,44.70
2023-12-13T01:39:45.308Z,46.50
2023-12-13T01:41:11.165Z,43.30
2023-12-13T01:42:20.346Z,41.10
2023-12-13T01:43:27.442Z,41.70
2023-12-13T01:44:33.787Z,40.90
2023-12-13T01:45:40.142Z,49.00
2023-12-13T01:46:48.031Z,48.60
2023-12-13T01:47:54.953Z,46.70
2023-12-13T01:49:02.889Z,50.40
2023-12-13T01:50:11.223Z,58.30
2023-12-13T01:51:18.574Z,53.40
2023-12-13T01:52:25.115Z,49.60
2023-12-13T01:53:33.211Z,50.00
2023-12-13T01:54:40.681Z,50.20
2023-12-13T01:55:47.906Z,52.20
2023-12-13T01:56:54.617Z,51.10
2023-12-13T01:58:01.484Z,46.30
2023-12-13T01:59:07.932Z,49.10
2023-12-13T02:00:16.974Z,45.10
2023-12-13T02:01:23.429Z,47.50
2023-12-13T02:02:30.434Z,47.10
2023-12-13T02:03:38.365Z,44.60
2023-12-13T02:04:46.089Z,50.40
2023-12-13T02:05:53.380Z,46.60
2023-12-13T02:07:00.014Z,48.20
2023-12-13T02:08:07.566Z,51.10
2023-12-13T02:09:14.316Z,49.90
2023-12-13T02:10:21.888Z,54.70
2023-12-13T02:11:29.107Z,53.00
2023-12-13T02:12:36.176Z,57.10
2023-12-13T02:13:43.386Z,54.40
2023-12-13T02:14:49.756Z,57.50
2023-12-13T02:15:56.519Z,53.20
2023-12-13T02:17:03.450Z,57.60
2023-12-13T02:18:17.194Z,56.60
2023-12-13T02:19:23.542Z,48.60
2023-12-13T02:20:30.504Z,52.90
2023-12-13T02:21:36.741Z,47.90
2023-12-13T02:22:43.254Z,47.30
2023-12-13T02:23:52.693Z,51.20
2023-12-13T02:24:59.949Z,48.90
2023-12-13T02:26:07.555Z,50.00
2023-12-13T02:27:14.601Z,52.80
2023-12-13T02:28:22.151Z,52.80
2023-12-13T02:29:28.707Z,55.20
2023-12-13T02:30:35.243Z,53.30
2023-12-13T02:31:45.183Z,53.60
2023-12-13T02:32:51.659Z,51.80
2023-12-13T02:33:58.362Z,50.60
2023-12-13T02:35:05.062Z,53.20
2023-12-13T02:36:12.094Z,44.90
2023-12-13T02:37:18.392Z,49.00
2023-12-13T02:38:25.899Z,44.90
2023-12-13T02:39:32.668Z,45.80
2023-12-13T02:40:39.149Z,46.30
2023-12-13T02:41:45.831Z,47.90
2023-12-13T02:42:52.054Z,47.90
2023-12-13T02:43:58.288Z,51.40
2023-12-13T02:45:05.168Z,52.30
2023-12-13T02:46:11.525Z,46.90
2023-12-13T02:47:17.736Z,43.30
2023-12-13T02:48:28.908Z,44.80
2023-12-13T02:49:35.719Z,36.70
2023-12-13T02:50:42.286Z,45.40
2023-12-13T02:51:48.638Z,38.30
2023-12-13T02:52:55.319Z,37.90
2023-12-13T02:54:01.892Z,38.50
2023-12-13T02:55:13.099Z,29.90
2023-12-13T02:56:19.733Z,32.70
2023-12-13T02:57:26.108Z,33.60
2023-12-13T02:58:32.719Z,31.00
2023-12-13T02:59:38.820Z,32.40
2023-12-13T03:00:45.411Z,27.60
2023-12-13T03:01:51.862Z,32.50
2023-12-13T03:02:59.060Z,32.70
2023-12-13T03:04:05.840Z,32.70
2023-12-13T03:05:12.608Z,32.80
2023-12-13T03:06:19.596Z,35.30
2023-12-13T03:07:26.639Z,36.30
2023-12-13T03:08:33.418Z,35.90
2023-12-13T03:09:41.156Z,31.60
2023-12-13T03:10:47.769Z,33.20
2023-12-13T03:11:54.659Z,34.10
2023-12-13T03:13:02.368Z,30.70
2023-12-13T03:14:09.217Z,29.40
2023-12-13T03:15:16.361Z,34.90
2023-12-13T03:16:24.814Z,32.60
2023-12-13T03:17:31.694Z,34.90
2023-12-13T03:18:39.459Z,32.90
2023-12-13T03:19:46.482Z,34.10
2023-12-13T03:20:56.074Z,35.90
2023-12-13T03:22:04.376Z,37.90
2023-12-13T03:23:11.620Z,36.90
2023-12-13T03:24:18.045Z,35.70
2023-12-13T03:25:24.622Z,34.10
2023-12-13T03:26:31.398Z,34.80
2023-12-13T03:27:38.672Z,30.70
2023-12-13T03:28:45.534Z,35.00
2023-12-13T03:29:52.218Z,28.90
2023-12-13T03:30:59.113Z,34.30
2023-12-13T03:32:07.110Z,32.00
2023-12-13T03:33:13.965Z,34.30
2023-12-13T03:34:20.587Z,33.40
2023-12-13T03:35:27.553Z,36.40
2023-12-13T03:36:34.084Z,33.60
2023-12-13T03:37:41.502Z,36.60
2023-12-13T03:38:48.234Z,35.90
2023-12-13T03:39:54.740Z,37.90
2023-12-13T03:41:01.686Z,32.80
2023-12-13T03:42:08.234Z,36.40
2023-12-13T03:43:14.573Z,35.00
2023-12-13T03:44:21.143Z,35.90
2023-12-13T03:45:28.223Z,35.80
2023-12-13T03:46:36.110Z,32.80
2023-12-13T03:47:44.250Z,34.50
2023-12-13T03:48:51.145Z,31.50
2023-12-13T03:49:57.959Z,31.20
2023-12-13T03:51:06.023Z,30.60
2023-12-13T03:52:12.632Z,32.20
2023-12-13T03:53:18.783Z,34.10
2023-12-13T03:54:25.413Z,32.10
2023-12-13T03:55:31.678Z,30.80
2023-12-13T03:56:38.313Z,34.80
2023-12-13T03:57:44.829Z,34.80
2023-12-13T03:58:51.261Z,31.60
2023-12-13T03:59:57.860Z,32.70
2023-12-13T04:01:04.502Z,33.10
2023-12-13T04:02:10.796Z,32.20
2023-12-13T04:03:17.298Z,31.20
2023-12-13T04:04:23.842Z,28.80
2023-12-13T04:05:30.783Z,28.80
2023-12-13T04:06:37.209Z,30.10
2023-12-13T04:07:43.897Z,31.10
2023-12-13T04:08:50.534Z,27.80
2023-12-13T04:09:57.023Z,27.70
2023-12-13T04:11:03.669Z,30.40
2023-12-13T04:12:11.126Z,30.20
2023-12-13T04:13:17.765Z,28.70
2023-12-13T04:14:24.288Z,32.70
2023-12-13T04:15:30.832Z,31.70
2023-12-13T04:16:36.935Z,30.90
2023-12-13T04:17:43.714Z,31.40
2023-12-13T04:18:52.947Z,28.70
2023-12-13T04:19:59.866Z,28.20
2023-12-13T04:21:07.299Z,32.60
2023-12-13T04:22:13.909Z,29.20
2023-12-13T04:23:20.646Z,30.70
2023-12-13T04:24:26.982Z,26.50
2023-12-13T04:25:33.196Z,29.90
2023-12-13T04:26:39.839Z,29.60
2023-12-13T04:27:48.723Z,26.70
2023-12-13T04:28:55.422Z,31.70
2023-12-13T04:30:02.082Z,31.80
2023-12-13T04:31:09.160Z,29.30
2023-12-13T04:32:15.598Z,29.80
2023-12-13T04:33:22.092Z,26.00
2023-12-13T04:34:28.801Z,29.80
2023-12-13T04:35:35.275Z,29.70
2023-12-13T04:36:41.921Z,33.40
2023-12-13T04:37:48.670Z,31.00
2023-12-13T04:38:55.604Z,32.80
2023-12-13T04:40:02.480Z,32.40
2023-12-13T04:41:09.536Z,35.30
2023-12-13T04:42:16.002Z,30.70
2023-12-13T04:43:23.095Z,31.30
2023-12-13T04:44:29.827Z,30.80
2023-12-13T04:45:36.462Z,28.40
2023-12-13T04:46:44.437Z,29.90
2023-12-13T04:47:50.957Z,28.80
2023-12-13T04:49:02.393Z,30.30
2023-12-13T04:50:10.809Z,31.50
2023-12-13T04:51:17.318Z,25.00
2023-12-13T04:52:24.253Z,28.00
2023-12-13T04:53:31.212Z,28.40
2023-12-13T04:54:38.559Z,27.80
2023-12-13T04:55:44.833Z,30.00
2023-12-13T04:56:51.318Z,28.50
2023-12-13T04:57:57.837Z,30.60
2023-12-13T04:59:04.292Z,30.00
2023-12-13T05:00:12.678Z,30.10
2023-12-13T05:01:18.949Z,29.30
2023-12-13T05:02:25.394Z,30.30
2023-12-13T05:03:31.982Z,30.30
2023-12-13T05:04:38.748Z,31.80
2023-12-13T05:05:45.437Z,31.00
2023-12-13T05:06:51.902Z,32.80
2023-12-13T05:07:58.540Z,31.10
2023-12-13T05:09:05.063Z,33.70
2023-12-13T05:10:12.400Z,31.70
2023-12-13T05:11:20.289Z,32.80
2023-12-13T05:12:26.573Z,34.40
2023-12-13T05:13:33.185Z,30.00
2023-12-13T05:14:39.844Z,34.30
2023-12-13T05:15:46.169Z,31.30
2023-12-13T05:16:52.702Z,32.30
2023-12-13T05:17:59.228Z,29.80
2023-12-13T05:19:06.041Z,36.50
2023-12-13T05:20:13.326Z,36.40
2023-12-13T05:21:19.774Z,34.30
2023-12-13T05:22:26.902Z,36.00
2023-12-13T05:23:33.341Z,33.40
2023-12-13T05:24:40.005Z,34.80
2023-12-13T05:25:46.756Z,36.00
2023-12-13T05:26:53.337Z,35.10
2023-12-13T05:27:59.785Z,31.90
2023-12-13T05:29:06.814Z,31.90
2023-12-13T05:30:14.650Z,36.20
2023-12-13T05:31:25.306Z,28.70
2023-12-13T05:32:31.775Z,29.60
2023-12-13T05:33:39.689Z,28.90
2023-12-13T05:34:46.155Z,28.90
2023-12-13T05:35:52.979Z,25.50
2023-12-13T05:36:59.252Z,27.30
2023-12-13T05:38:06.012Z,23.30
2023-12-13T05:39:12.856Z,24.60
2023-12-13T05:40:19.236Z,24.90
2023-12-13T05:41:25.777Z,23.90
2023-12-13T05:42:34.818Z,22.80
2023-12-13T05:43:41.749Z,22.80
2023-12-13T05:44:48.305Z,24.30
2023-12-13T05:45:56.013Z,25.00
2023-12-13T05:47:02.744Z,26.20
2023-12-13T05:48:09.724Z,25.30
2023-12-13T05:49:19.346Z,25.60
2023-12-13T05:50:26.316Z,27.40
2023-12-13T05:51:33.455Z,28.20
2023-12-13T05:52:40.721Z,23.20
2023-12-13T05:53:47.373Z,27.90
2023-12-13T05:54:53.838Z,23.60
2023-12-13T05:56:02.197Z,23.10
2023-12-13T05:57:08.653Z,24.50
2023-12-13T05:58:16.077Z,23.60
2023-12-13T05:59:22.769Z,21.50
2023-12-13T06:00:32.125Z,20.20
2023-12-13T06:01:39.381Z,21.60
2023-12-13T06:02:55.307Z,20.40
2023-12-13T06:04:03.894Z,21.40
2023-12-13T06:05:12.561Z,19.70
2023-12-13T06:06:20.292Z,22.00
2023-12-13T06:07:26.742Z,21.40
2023-12-13T06:08:33.817Z,20.40
2023-12-13T06:09:41.357Z,24.00
2023-12-13T06:10:48.060Z,19.60
2023-12-13T06:11:54.698Z,21.20
2023-12-13T06:13:00.892Z,22.20
2023-12-13T06:14:07.160Z,25.20
2023-12-13T06:15:14.043Z,20.60
2023-12-13T06:16:20.559Z,21.60
2023-12-13T06:17:27.215Z,23.50
2023-12-13T06:18:34.093Z,22.70
2023-12-13T06:19:41.985Z,25.40
2023-12-13T06:20:48.249Z,26.20
2023-12-13T06:21:56.394Z,25.30
2023-12-13T06:23:03.644Z,24.70
2023-12-13T06:24:10.337Z,24.40
2023-12-13T06:25:17.597Z,23.30
2023-12-13T06:26:25.115Z,22.30
2023-12-13T06:27:31.836Z,23.50
2023-12-13T06:28:38.351Z,26.90
2023-12-13T06:29:45.293Z,25.80
2023-12-13T06:30:52.393Z,27.80
2023-12-13T06:31:59.003Z,25.50
2023-12-13T06:33:06.219Z,27.10
2023-12-13T06:34:12.747Z,27.80
2023-12-13T06:35:19.209Z,26.00
2023-12-13T06:36:25.870Z,25.60
2023-12-13T06:37:33.476Z,24.20
2023-12-13T06:38:39.996Z,25.20
2023-12-13T06:39:48.254Z,26.00
2023-12-13T06:40:56.514Z,24.50
2023-12-13T06:42:03.921Z,26.80
2023-12-13T06:43:11.118Z,25.60
2023-12-13T06:44:17.965Z,26.30
2023-12-13T06:45:24.194Z,21.80
2023-12-13T06:46:30.667Z,23.00
2023-12-13T06:47:37.579Z,26.10
2023-12-13T06:48:44.732Z,19.70
2023-12-13T06:49:51.178Z,23.20
2023-12-13T06:50:58.293Z,24.20
2023-12-13T06:52:05.383Z,20.70
2023-12-13T06:53:12.195Z,23.50
2023-12-13T06:54:19.768Z,19.50
2023-12-13T06:55:26.485Z,16.60
2023-12-13T06:56:33.048Z,20.10
2023-12-13T06:57:40.421Z,20.10
2023-12-13T06:58:47.359Z,20.20
2023-12-13T06:59:54.611Z,20.40
2023-12-13T07:01:00.946Z,21.80
2023-12-13T07:02:08.364Z,20.50
2023-12-13T07:03:14.972Z,21.70
2023-12-13T07:04:21.785Z,19.50
2023-12-13T07:05:28.200Z,19.80
2023-12-13T07:06:35.268Z,23.90
2023-12-13T07:07:41.490Z,18.50
2023-12-13T07:08:48.103Z,22.90
2023-12-13T07:09:55.585Z,24.10
2023-12-13T07:11:04.800Z,25.80
2023-12-13T07:12:11.940Z,24.10
2023-12-13T07:13:18.881Z,23.00
2023-12-13T07:14:26.734Z,22.90
2023-12-13T07:15:33.310Z,19.20
2023-12-13T07:16:39.880Z,19.80
2023-12-13T07:17:46.331Z,20.40
2023-12-13T07:18:53.557Z,20.00
2023-12-13T07:20:01.202Z,20.40
2023-12-13T07:21:09.671Z,21.00
2023-12-13T07:22:16.140Z,19.70
2023-12-13T07:23:22.911Z,19.60
2023-12-13T07:24:29.432Z,19.10
2023-12-13T07:25:35.695Z,21.50
2023-12-13T07:26:42.134Z,23.30
2023-12-13T07:27:48.674Z,21.00
2023-12-13T07:28:55.229Z,19.40
2023-12-13T07:30:01.849Z,19.90
2023-12-13T07:31:10.357Z,20.70
2023-12-13T07:32:17.453Z,21.80
2023-12-13T07:33:24.837Z,21.90
2023-12-13T07:34:31.454Z,21.40
2023-12-13T07:35:38.227Z,23.70
2023-12-13T07:36:49.583Z,24.30
2023-12-13T07:37:56.594Z,22.30
2023-12-13T07:39:04.410Z,22.00
2023-12-13T07:40:13.320Z,20.80
2023-12-13T07:41:20.730Z,21.40
2023-12-13T07:42:29.192Z,22.30
2023-12-13T07:43:35.529Z,21.00
2023-12-13T07:44:43.863Z,21.80
2023-12-13T07:45:53.258Z,22.20
2023-12-13T07:47:00.279Z,19.50
2023-12-13T07:48:17.979Z,21.90
2023-12-13T07:49:32.819Z,19.40
2023-12-13T07:50:39.692Z,22.60
2023-12-13T07:51:46.443Z,24.20
2023-12-13T07:52:52.968Z,20.70
2023-12-13T07:54:01.938Z,20.10
2023-12-13T07:55:10.149Z,21.00
2023-12-13T07:56:23.981Z,21.50
2023-12-13T07:57:34.231Z,25.10
2023-12-13T07:58:40.589Z,25.20
2023-12-13T07:59:47.186Z,23.30
2023-12-13T08:00:53.595Z,24.20
2023-12-13T08:01:59.840Z,19.60
2023-12-13T08:03:06.242Z,20.80
2023-12-13T08:04:12.783Z,20.10
2023-12-13T08:05:21.478Z,22.50
2023-12-13T08:06:28.150Z,21.60
2023-12-13T08:07:34.466Z,20.60
2023-12-13T08:08:41.076Z,22.00
2023-12-13T08:09:47.588Z,20.50
2023-12-13T08:10:54.676Z,21.60
2023-12-13T08:12:01.340Z,23.10
2023-12-13T08:13:07.963Z,19.00
2023-12-13T08:14:17.567Z,19.80
2023-12-13T08:15:24.408Z,23.90
2023-12-13T08:16:31.098Z,23.40
2023-12-13T08:17:37.887Z,24.70
2023-12-13T08:18:44.538Z,21.80
2023-12-13T08:19:51.601Z,19.70
2023-12-13T08:20:58.133Z,17.90
2023-12-13T08:22:05.068Z,21.60
2023-12-13T08:23:11.571Z,22.00
2023-12-13T08:24:18.521Z,20.10
2023-12-13T08:25:25.114Z,19.80
2023-12-13T08:26:31.430Z,22.30
2023-12-13T08:27:38.307Z,21.80
2023-12-13T08:28:44.889Z,21.10
2023-12-13T08:29:51.970Z,24.80
2023-12-13T08:31:08.750Z,23.80
2023-12-13T08:32:23.598Z,24.30
2023-12-13T08:33:29.970Z,23.10
2023-12-13T08:34:36.921Z,21.80
2023-12-13T08:35:43.695Z,18.80
2023-12-13T08:36:50.274Z,19.40
2023-12-13T08:37:56.996Z,23.50
2023-12-13T08:39:04.264Z,21.40
2023-12-13T08:40:12.534Z,21.90
2023-12-13T08:41:18.973Z,20.80
2023-12-13T08:42:30.643Z,21.40
2023-12-13T08:43:43.275Z,18.60
2023-12-13T08:44:50.390Z,23.70
2023-12-13T08:45:56.773Z,19.80
2023-12-13T08:47:03.523Z,18.60
2023-12-13T08:48:10.084Z,18.60
2023-12-13T08:49:16.588Z,17.80
2023-12-13T08:50:23.682Z,20.70
2023-12-13T08:51:30.252Z,19.50
2023-12-13T08:52:36.573Z,19.00
2023-12-13T08:53:42.778Z,19.60
2023-12-13T08:54:48.995Z,21.40
2023-12-13T08:55:55.280Z,20.90
2023-12-13T08:57:02.554Z,19.70
2023-12-13T08:58:08.896Z,19.40
2023-12-13T08:59:15.167Z,18.70
2023-12-13T09:00:22.746Z,21.00
2023-12-13T09:01:29.748Z,19.00
2023-12-13T09:02:36.011Z,19.10
2023-12-13T09:03:42.600Z,20.80
2023-12-13T09:04:49.799Z,20.40
2023-12-13T09:05:56.261Z,20.70
2023-12-13T09:07:02.642Z,17.60
2023-12-13T09:08:09.114Z,19.90
2023-12-13T09:09:15.961Z,19.30
2023-12-13T09:10:27.497Z,21.50
2023-12-13T09:11:33.600Z,21.10
2023-12-13T09:12:39.898Z,21.50
2023-12-13T09:13:46.375Z,21.10
2023-12-13T09:14:53.233Z,22.10
2023-12-13T09:15:59.771Z,25.10
2023-12-13T09:17:06.647Z,24.70
2023-12-13T09:18:13.226Z,22.80
2023-12-13T09:19:20.545Z,22.80
2023-12-13T09:20:33.060Z,20.50
2023-12-13T09:21:39.584Z,22.20
2023-12-13T09:22:46.255Z,21.60
2023-12-13T09:23:52.830Z,24.10
2023-12-13T09:24:59.986Z,21.20
2023-12-13T09:26:07.221Z,18.80
2023-12-13T09:27:13.691Z,18.30
2023-12-13T09:28:20.579Z,18.20
2023-12-13T09:29:26.835Z,18.00
2023-12-13T09:30:33.125Z,21.00
2023-12-13T09:31:39.987Z,17.00
2023-12-13T09:32:48.085Z,21.70
2023-12-13T09:33:54.951Z,25.10
2023-12-13T09:35:01.641Z,22.20
2023-12-13T09:36:10.575Z,24.50
2023-12-13T09:37:17.724Z,24.40
2023-12-13T09:38:24.258Z,24.20
2023-12-13T09:39:31.151Z,23.80
2023-12-13T09:40:37.927Z,23.60
2023-12-13T09:41:55.338Z,21.50
2023-12-13T09:43:03.151Z,25.80
2023-12-13T09:44:10.358Z,24.50
2023-12-13T09:45:22.548Z,24.90
2023-12-13T09:46:30.899Z,19.40
2023-12-13T09:47:39.393Z,24.90
2023-12-13T09:48:47.298Z,20.00
2023-12-13T09:49:55.065Z,24.20
2023-12-13T09:51:04.097Z,24.10
2023-12-13T09:53:17.711Z,22.80
2023-12-13T09:54:24.475Z,23.30
2023-12-13T09:55:30.886Z,23.40
2023-12-13T09:56:38.183Z,25.00
2023-12-13T09:57:44.891Z,20.20
2023-12-13T09:58:51.869Z,22.90
2023-12-13T09:59:59.097Z,20.20
2023-12-13T10:01:17.443Z,20.90
2023-12-13T10:02:23.823Z,21.20
2023-12-13T10:03:32.820Z,22.70
2023-12-13T10:05:48.769Z,22.30
2023-12-13T10:06:55.605Z,21.60
2023-12-13T10:08:05.329Z,30.90
2023-12-13T10:09:12.634Z,25.30
2023-12-13T10:10:19.726Z,23.20
2023-12-13T10:11:26.575Z,24.20
2023-12-13T10:12:35.000Z,21.10
2023-12-13T10:13:42.534Z,24.00
2023-12-13T10:14:49.050Z,22.30
2023-12-13T10:15:55.531Z,24.60
2023-12-13T10:17:11.810Z,20.50
2023-12-13T10:18:23.987Z,27.00
2023-12-13T10:19:30.799Z,27.60
2023-12-13T10:20:38.104Z,22.80
2023-12-13T10:21:47.378Z,22.80
2023-12-13T10:23:58.787Z,25.30
2023-12-13T10:25:05.994Z,27.10
2023-12-13T10:26:13.512Z,28.30
2023-12-13T10:27:20.528Z,27.70
2023-12-13T10:28:27.377Z,26.90
2023-12-13T10:29:34.046Z,28.20
2023-12-13T10:30:41.678Z,28.30
2023-12-13T10:31:49.569Z,32.60
2023-12-13T10:32:56.228Z,31.50
2023-12-13T10:34:03.013Z,29.80
2023-12-13T10:35:10.717Z,28.00
2023-12-13T10:36:19.353Z,31.50
2023-12-13T10:37:28.424Z,27.80
2023-12-13T10:38:36.813Z,26.50
2023-12-13T10:39:45.911Z,30.80
2023-12-13T10:42:00.554Z,29.50
2023-12-13T10:44:20.746Z,29.10
2023-12-13T10:45:28.037Z,27.10
2023-12-13T10:46:37.826Z,25.40
2023-12-13T10:47:47.275Z,29.20
2023-12-13T10:48:55.186Z,30.70
2023-12-13T10:50:02.948Z,31.60
2023-12-13T10:51:10.987Z,25.90
2023-12-13T10:52:19.458Z,31.10
2023-12-13T10:53:28.054Z,27.80
2023-12-13T10:54:36.150Z,28.90
2023-12-13T10:55:44.568Z,33.00
2023-12-13T10:56:52.454Z,33.50
2023-12-13T10:57:59.445Z,32.00
2023-12-13T10:59:08.761Z,32.00
2023-12-13T11:00:18.142Z,31.00
2023-12-13T11:01:25.481Z,29.10
2023-12-13T11:02:37.524Z,30.90
2023-12-13T11:03:49.543Z,30.00
2023-12-13T11:04:57.108Z,25.30
2023-12-13T11:06:08.727Z,29.40
2023-12-13T11:07:21.820Z,34.50
2023-12-13T11:08:42.583Z,26.50
2023-12-13T11:09:57.042Z,19.50
2023-12-13T11:11:05.431Z,21.00
2023-12-13T11:12:20.035Z,21.90
2023-12-13T11:13:27.673Z,18.30
2023-12-13T11:14:36.343Z,21.10
2023-12-13T11:15:46.722Z,16.40
2023-12-13T11:16:53.842Z,20.40
2023-12-13T11:18:05.431Z,17.80
2023-12-13T11:19:20.112Z,15.90
2023-12-13T11:20:28.182Z,15.40
2023-12-13T11:21:36.090Z,18.50
2023-12-13T11:22:50.370Z,17.80
2023-12-13T11:24:01.569Z,15.40
2023-12-13T11:25:10.615Z,15.20
2023-12-13T11:26:25.234Z,15.00
2023-12-13T11:27:33.988Z,13.20
2023-12-13T11:28:40.549Z,14.90
2023-12-13T11:29:49.023Z,14.40
2023-12-13T11:30:57.254Z,15.90
2023-12-13T11:32:05.585Z,12.60
2023-12-13T11:33:15.798Z,12.70
2023-12-13T11:34:33.778Z,14.70
2023-12-13T11:35:41.881Z,13.50
2023-12-13T11:36:48.547Z,16.00
2023-12-13T11:37:56.403Z,12.60
2023-12-13T11:39:04.877Z,15.50
2023-12-13T11:40:13.476Z,13.50
2023-12-13T11:41:21.553Z,13.00
2023-12-13T11:42:27.781Z,11.20
2023-12-13T11:43:34.389Z,12.50
2023-12-13T11:44:43.891Z,13.20
2023-12-13T11:48:04.935Z,11.30
2023-12-13T11:49:11.680Z,13.70
2023-12-13T11:50:21.490Z,12.20
2023-12-13T11:51:28.708Z,13.80
2023-12-13T11:52:35.345Z,11.80
2023-12-13T11:53:42.095Z,14.30
2023-12-13T11:54:48.641Z,19.60
2023-12-13T11:55:56.638Z,16.90
2023-12-13T11:57:11.787Z,17.50
2023-12-13T11:58:18.565Z,20.80
2023-12-13T11:59:26.431Z,17.20
2023-12-13T12:00:33.599Z,15.60
2023-12-13T12:01:42.013Z,18.70
2023-12-13T12:02:52.903Z,17.30
2023-12-13T12:03:59.874Z,13.80
2023-12-13T12:05:09.754Z,13.10
2023-12-13T12:06:23.496Z,14.40
2023-12-13T12:07:30.604Z,12.70
2023-12-13T12:08:37.970Z,12.40
2023-12-13T12:09:49.590Z,13.70
2023-12-13T12:10:56.813Z,12.40
2023-12-13T12:12:05.049Z,14.10
2023-12-13T12:13:15.601Z,11.70
2023-12-13T12:14:26.204Z,15.60
2023-12-13T12:15:33.649Z,12.90
2023-12-13T12:16:41.100Z,21.70
2023-12-13T12:17:48.926Z,20.90
2023-12-13T12:18:56.809Z,15.50
2023-12-13T12:20:04.659Z,18.20
2023-12-13T12:21:12.237Z,13.50
2023-12-13T12:22:23.138Z,13.90
2023-12-13T12:23:32.992Z,14.50
2023-12-13T12:24:39.539Z,14.00
2023-12-13T12:25:47.535Z,11.50
2023-12-13T12:26:55.806Z,12.60
2023-12-13T12:28:02.848Z,13.20
2023-12-13T12:29:09.433Z,13.90
2023-12-13T12:30:18.775Z,12.80
2023-12-13T12:31:25.481Z,9.70
2023-12-13T12:32:32.002Z,12.80
2023-12-13T12:33:39.361Z,11.80
2023-12-13T12:34:50.846Z,13.20
2023-12-13T12:35:58.912Z,14.50
2023-12-13T12:37:06.123Z,14.10
2023-12-13T12:38:13.400Z,12.80
2023-12-13T12:39:20.283Z,12.00
2023-12-13T12:40:26.836Z,12.30
2023-12-13T12:41:35.836Z,15.10
2023-12-13T12:42:44.182Z,10.90
2023-12-13T12:43:51.522Z,12.20
2023-12-13T12:44:57.977Z,14.40
2023-12-13T12:46:05.776Z,13.70
2023-12-13T12:47:12.041Z,12.70
2023-12-13T12:48:19.486Z,10.00
2023-12-13T12:49:26.621Z,12.00
2023-12-13T12:50:33.321Z,16.90
2023-12-13T12:51:39.878Z,13.70
2023-12-13T12:52:46.413Z,11.20
2023-12-13T12:53:53.053Z,14.60
2023-12-13T12:54:59.344Z,12.60
2023-12-13T12:56:11.245Z,15.90
2023-12-13T12:57:19.349Z,15.20
2023-12-13T12:58:26.059Z,16.70
2023-12-13T12:59:32.638Z,21.50
2023-12-13T13:00:39.271Z,19.80
2023-12-13T13:01:46.629Z,21.30
2023-12-13T13:02:54.058Z,20.60
2023-12-13T13:04:01.003Z,24.20
2023-12-13T13:05:08.853Z,18.20
2023-12-13T13:06:16.093Z,16.10
2023-12-13T13:07:22.620Z,17.80
2023-12-13T13:08:30.045Z,13.20
2023-12-13T13:09:37.115Z,15.50
2023-12-13T13:10:43.929Z,15.20
2023-12-13T13:11:50.553Z,14.30
2023-12-13T13:12:57.716Z,19.10
2023-12-13T13:14:07.997Z,12.60
2023-12-13T13:15:15.115Z,17.90
2023-12-13T13:16:22.549Z,15.20
2023-12-13T13:17:31.713Z,11.80
2023-12-13T13:18:38.468Z,13.20
2023-12-13T13:19:45.125Z,11.90
2023-12-13T13:20:51.935Z,12.20
2023-12-13T13:22:03.203Z,16.70
2023-12-13T13:23:15.016Z,17.40
2023-12-13T13:24:23.454Z,15.80
2023-12-13T13:25:30.403Z,15.00
2023-12-13T13:26:38.071Z,13.50
2023-12-13T13:27:45.805Z,13.70
2023-12-13T13:28:52.824Z,15.30
2023-12-13T13:29:59.575Z,12.10
2023-12-13T13:31:06.748Z,11.60
2023-12-13T13:32:13.526Z,10.60
2023-12-13T13:33:20.171Z,10.80
2023-12-13T13:34:26.807Z,11.40
2023-12-13T13:35:33.244Z,12.50
2023-12-13T13:36:39.851Z,12.00
2023-12-13T13:37:47.250Z,10.50
2023-12-13T13:38:53.960Z,12.30
2023-12-13T13:40:00.341Z,12.50
2023-12-13T13:41:07.753Z,11.00
2023-12-13T13:42:14.345Z,16.40
2023-12-13T13:43:21.013Z,14.90
2023-12-13T13:44:27.788Z,17.00
2023-12-13T13:45:34.458Z,15.10
2023-12-13T13:46:41.570Z,13.70
2023-12-13T13:47:48.508Z,11.50
2023-12-13T13:48:57.369Z,11.20
2023-12-13T13:51:11.041Z,11.80
2023-12-13T13:52:18.960Z,9.50
2023-12-13T13:53:29.509Z,11.90
2023-12-13T13:54:36.357Z,15.80
2023-12-13T13:55:43.000Z,17.70
2023-12-13T13:56:49.780Z,15.70
2023-12-13T13:57:56.490Z,13.10
2023-12-13T13:59:02.991Z,13.50
2023-12-13T14:00:12.992Z,15.60
2023-12-13T14:01:19.666Z,10.50
2023-12-13T14:02:33.752Z,13.20
2023-12-13T14:03:40.828Z,12.40
2023-12-13T14:04:47.478Z,12.10
2023-12-13T14:05:57.101Z,13.20
2023-12-13T14:07:05.749Z,10.70
2023-12-13T14:08:15.320Z,12.30
2023-12-13T14:09:22.732Z,10.60
2023-12-13T14:10:29.430Z,10.80
2023-12-13T14:11:36.219Z,9.00
2023-12-13T14:12:42.809Z,11.80
2023-12-13T14:13:51.644Z,13.50
2023-12-13T14:14:58.412Z,13.20
2023-12-13T14:16:05.603Z,12.80
2023-12-13T14:17:13.039Z,14.10
2023-12-13T14:18:21.589Z,11.90
2023-12-13T14:19:28.440Z,13.30
2023-12-13T14:20:34.969Z,13.20
2023-12-13T14:21:41.591Z,10.40
2023-12-13T14:22:48.277Z,11.10
2023-12-13T14:23:55.851Z,11.20
2023-12-13T14:25:02.496Z,9.40
2023-12-13T14:26:09.269Z,10.20
2023-12-13T14:27:16.016Z,7.30
2023-12-13T14:28:23.922Z,6.30
2023-12-13T14:29:31.797Z,5.90
2023-12-13T14:30:39.931Z,7.70
2023-12-13T14:31:47.076Z,10.50
2023-12-13T14:32:54.439Z,11.30
2023-12-13T14:34:01.409Z,12.30
2023-12-13T14:35:09.413Z,13.60
2023-12-13T14:36:16.102Z,13.70
2023-12-13T14:37:23.549Z,13.50
2023-12-13T14:38:32.811Z,9.90